Time;durP1;ratioP1;P1;durP2;ratioP2;P2;SDS_P1;SDS_P2;PMS_P1;PMS_P2;Temp;Humidity;BMP_temperature;BMP_pressure;BME280_temperature;BME280_humidity;BME280_pressure;Samples;Min_cycle;Max_cycle;Signal;HPM_P1;HPM_P2
2022/07/14 00:01:58;;;;;;;2.10;1.50;;;;;;;;;;4509909;28;20812;-70
2022/07/14 00:04:08;;;;;;;1.90;1.70;;;;;;;;;;4510090;28;20029;-71
2022/07/14 00:06:19;;;;;;;3.63;1.80;;;;;;;;;;4500374;28;20127;-69
2022/07/14 00:08:29;;;;;;;2.13;1.60;;;;;;;;;;4511274;28;20033;-71
2022/07/14 00:10:40;;;;;;;3.47;1.83;;;;;;;;;;4510467;28;20071;-71
2022/07/14 00:12:50;;;;;;;1.92;1.73;;;;;;;;;;4482568;28;20105;-70
2022/07/14 00:15:01;;;;;;;2.42;1.60;;;;;;;;;;4510062;28;20047;-71
2022/07/14 00:17:11;;;;;;;2.63;1.60;;;;;;;;;;4484291;28;20038;-70
2022/07/14 00:19:22;;;;;;;2.83;1.70;;;;;;;;;;4509912;28;20125;-70
2022/07/14 00:21:33;;;;;;;2.80;2.00;;;;;;;;;;4492113;28;20097;-70
2022/07/14 00:23:45;;;;;;;2.70;1.70;;;;;;;;;;4508182;28;20045;-70
2022/07/14 00:25:56;;;;;;;2.22;1.60;;;;;;;;;;4493104;28;20034;-71
2022/07/14 00:28:06;;;;;;;3.40;1.67;;;;;;;;;;4508087;28;20033;-70
2022/07/14 00:30:17;;;;;;;3.08;1.60;;;;;;;;;;4492749;28;20052;-70
2022/07/14 00:32:28;;;;;;;2.47;1.70;;;;;;;;;;4507417;28;20069;-70
2022/07/14 00:34:38;;;;;;;3.28;1.55;;;;;;;;;;4489578;28;20493;-71
2022/07/14 00:36:49;;;;;;;1.95;1.63;;;;;;;;;;4508932;28;20042;-69
2022/07/14 00:38:59;;;;;;;4.20;1.75;;;;;;;;;;4508154;28;20032;-70
2022/07/14 00:41:10;;;;;;;2.33;1.60;;;;;;;;;;4509604;28;20034;-70
2022/07/14 00:43:21;;;;;;;3.22;1.60;;;;;;;;;;4493640;28;20043;-71
2022/07/14 00:45:31;;;;;;;2.33;1.60;;;;;;;;;;4493925;28;21334;-71
2022/07/14 00:47:42;;;;;;;2.45;1.60;;;;;;;;;;4507896;28;20033;-70
2022/07/14 00:49:54;;;;;;;2.83;1.63;;;;;;;;;;4477861;28;20049;-71
2022/07/14 00:52:04;;;;;;;2.15;1.50;;;;;;;;;;4507971;28;20026;-70
2022/07/14 00:54:25;;;;;;;3.22;1.80;;;;;;;;;;4508536;28;20046;-70
2022/07/14 00:56:35;;;;;;;2.35;1.50;;;;;;;;;;4506119;28;20493;-70
2022/07/14 00:58:46;;;;;;;2.30;1.40;;;;;;;;;;4509238;28;20303;-71
2022/07/14 01:00:56;;;;;;;2.72;1.30;;;;;;;;;;4508498;28;20085;-70
2022/07/14 01:03:07;;;;;;;2.40;1.50;;;;;;;;;;4508224;28;20902;-70
2022/07/14 01:05:17;;;;;;;2.28;1.25;;;;;;;;;;4508548;28;20076;-71
2022/07/14 01:07:28;;;;;;;2.72;1.40;;;;;;;;;;4508343;28;20491;-70
2022/07/14 01:09:39;;;;;;;3.20;1.55;;;;;;;;;;4508866;28;20037;-71
2022/07/14 01:11:50;;;;;;;3.58;1.63;;;;;;;;;;4500019;28;20083;-70
2022/07/14 01:14:03;;;;;;;2.42;1.55;;;;;;;;;;4508360;28;20117;-70
2022/07/14 01:16:14;;;;;;;2.95;1.33;;;;;;;;;;4506560;28;20025;-70
2022/07/14 01:18:24;;;;;;;3.28;1.38;;;;;;;;;;4507219;28;20489;-70
2022/07/14 01:20:35;;;;;;;3.15;1.30;;;;;;;;;;4491189;28;20065;-70
2022/07/14 01:22:48;;;;;;;3.50;1.50;;;;;;;;;;4507716;28;20124;-70
2022/07/14 01:24:59;;;;;;;3.42;1.50;;;;;;;;;;4495153;28;20030;-70
2022/07/14 01:27:11;;;;;;;2.95;1.60;;;;;;;;;;4495593;28;20526;-70
2022/07/14 01:29:22;;;;;;;3.13;1.38;;;;;;;;;;4483834;28;20046;-70
2022/07/14 01:31:33;;;;;;;2.35;1.27;;;;;;;;;;4492635;28;20038;-71
2022/07/14 01:33:43;;;;;;;3.38;1.40;;;;;;;;;;4475458;28;20030;-70
2022/07/14 01:35:54;;;;;;;2.40;1.30;;;;;;;;;;4478226;28;20114;-71
2022/07/14 01:38:04;;;;;;;2.65;1.30;;;;;;;;;;4489304;28;20044;-70
2022/07/14 01:40:15;;;;;;;3.08;1.20;;;;;;;;;;4508416;28;20108;-71
2022/07/14 01:42:26;;;;;;;2.42;1.38;;;;;;;;;;4499198;28;20426;-70
2022/07/14 01:44:37;;;;;;;2.80;1.30;;;;;;;;;;4492283;28;20038;-70
2022/07/14 01:46:48;;;;;;;3.70;1.48;;;;;;;;;;4490627;28;20034;-71
2022/07/14 01:48:58;;;;;;;2.67;1.42;;;;;;;;;;4493018;28;20534;-69
2022/07/14 01:51:11;;;;;;;3.20;1.45;;;;;;;;;;4493898;28;20060;-71
2022/07/14 01:53:21;;;;;;;3.00;1.20;;;;;;;;;;4506374;28;20491;-70
2022/07/14 01:55:32;;;;;;;3.67;1.40;;;;;;;;;;4493266;28;20122;-70
2022/07/14 01:57:43;;;;;;;1.98;1.20;;;;;;;;;;4498877;28;20080;-70
2022/07/14 01:59:54;;;;;;;2.28;1.13;;;;;;;;;;4476098;28;20045;-70
2022/07/14 02:02:04;;;;;;;2.60;1.17;;;;;;;;;;4498622;28;20022;-70
2022/07/14 02:04:17;;;;;;;2.80;1.27;;;;;;;;;;4492946;28;20060;-69
2022/07/14 02:06:29;;;;;;;2.72;1.38;;;;;;;;;;4507661;28;20653;-70
2022/07/14 02:08:39;;;;;;;2.35;1.40;;;;;;;;;;4490328;28;20093;-71
2022/07/14 02:13:23;;;;;;;3.03;1.40;;;;;;;;;;4493469;28;20030;-70
2022/07/14 02:15:34;;;;;;;3.63;1.50;;;;;;;;;;4494303;28;20060;-70
2022/07/14 02:17:45;;;;;;;3.08;1.33;;;;;;;;;;4507027;28;20072;-70
2022/07/14 02:19:56;;;;;;;2.92;1.42;;;;;;;;;;4494220;28;20038;-69
2022/07/14 02:22:06;;;;;;;2.35;1.30;;;;;;;;;;4507784;28;20087;-69
2022/07/14 02:24:18;;;;;;;3.63;1.30;;;;;;;;;;4488589;28;20074;-69
2022/07/14 02:26:28;;;;;;;2.50;1.10;;;;;;;;;;4476105;28;20030;-69
2022/07/14 02:28:42;;;;;;;3.60;1.45;;;;;;;;;;4489428;28;20030;-70
2022/07/14 02:30:55;;;;;;;3.75;1.60;;;;;;;;;;4489057;28;20038;-70
2022/07/14 02:33:06;;;;;;;2.90;1.60;;;;;;;;;;4490916;28;20303;-69
2022/07/14 02:35:16;;;;;;;2.65;1.20;;;;;;;;;;4499938;28;20068;-69
2022/07/14 02:37:27;;;;;;;3.88;1.38;;;;;;;;;;4492792;28;20105;-70
2022/07/14 02:39:37;;;;;;;2.67;1.20;;;;;;;;;;4507182;28;20038;-71
2022/07/14 02:41:49;;;;;;;3.72;1.42;;;;;;;;;;4482964;28;20170;-70
2022/07/14 02:44:00;;;;;;;2.80;1.40;;;;;;;;;;4482629;28;20139;-70
2022/07/14 02:46:10;;;;;;;2.17;1.52;;;;;;;;;;4506228;28;20037;-70
2022/07/14 02:48:21;;;;;;;2.17;1.38;;;;;;;;;;4492873;28;20034;-70
2022/07/14 02:50:31;;;;;;;2.83;1.30;;;;;;;;;;4493873;28;20073;-69
2022/07/14 02:52:43;;;;;;;4.13;1.50;;;;;;;;;;4507285;28;20034;-70
2022/07/14 02:54:53;;;;;;;3.22;1.40;;;;;;;;;;4507694;28;20507;-69
2022/07/14 02:57:07;;;;;;;2.83;1.38;;;;;;;;;;4494051;28;20038;-69
2022/07/14 02:59:17;;;;;;;2.90;1.38;;;;;;;;;;4477882;28;20443;-69
2022/07/14 03:01:32;;;;;;;3.90;1.63;;;;;;;;;;4493705;28;20035;-71
2022/07/14 03:03:43;;;;;;;3.65;1.52;;;;;;;;;;4489697;28;20409;-70
2022/07/14 03:05:56;;;;;;;2.47;1.52;;;;;;;;;;4492204;28;20038;-70
2022/07/14 03:08:08;;;;;;;2.63;1.42;;;;;;;;;;4498385;28;20030;-70
2022/07/14 03:10:19;;;;;;;3.50;1.38;;;;;;;;;;4492733;28;20558;-69
2022/07/14 03:12:30;;;;;;;4.03;1.67;;;;;;;;;;4491581;28;20057;-69
2022/07/14 03:14:40;;;;;;;2.85;1.55;;;;;;;;;;4494275;28;20053;-69
2022/07/14 03:16:51;;;;;;;2.67;1.40;;;;;;;;;;4506658;28;20042;-70
2022/07/14 03:19:01;;;;;;;3.42;1.70;;;;;;;;;;4505974;28;20038;-69
2022/07/14 03:21:12;;;;;;;2.75;1.52;;;;;;;;;;4481243;28;20664;-69
2022/07/14 03:23:27;;;;;;;4.50;1.40;;;;;;;;;;4477501;28;20070;-69
2022/07/14 03:25:42;;;;;;;2.90;1.40;;;;;;;;;;4494070;28;20042;-69
2022/07/14 03:27:53;;;;;;;3.00;1.50;;;;;;;;;;4487622;28;20145;-70
2022/07/14 03:30:08;;;;;;;3.78;1.40;;;;;;;;;;4498913;28;20139;-71
2022/07/14 03:32:18;;;;;;;3.35;1.33;;;;;;;;;;4490768;28;20023;-69
2022/07/14 03:34:30;;;;;;;4.30;1.60;;;;;;;;;;4504166;28;20108;-69
2022/07/14 03:36:40;;;;;;;3.75;1.60;;;;;;;;;;4490955;28;20100;-70
2022/07/14 03:38:52;;;;;;;3.63;1.48;;;;;;;;;;4491326;28;20037;-70
2022/07/14 03:41:04;;;;;;;3.13;1.40;;;;;;;;;;4488955;28;20089;-70
2022/07/14 03:43:16;;;;;;;2.38;1.38;;;;;;;;;;4497285;28;20157;-70
2022/07/14 03:45:28;;;;;;;4.53;1.60;;;;;;;;;;4497828;28;20038;-70
2022/07/14 03:47:38;;;;;;;3.20;1.45;;;;;;;;;;4490360;28;20034;-70
2022/07/14 03:49:49;;;;;;;2.97;1.40;;;;;;;;;;4490132;28;20030;-69
2022/07/14 03:52:00;;;;;;;5.13;1.48;;;;;;;;;;4496213;28;21464;-69
2022/07/14 03:54:11;;;;;;;3.67;1.50;;;;;;;;;;4490211;28;20034;-69
2022/07/14 03:56:22;;;;;;;3.33;1.65;;;;;;;;;;4495640;28;20537;-69
2022/07/14 03:58:33;;;;;;;2.40;1.40;;;;;;;;;;4491212;28;20034;-69
2022/07/14 04:00:43;;;;;;;4.32;1.60;;;;;;;;;;4497302;28;20029;-70
2022/07/14 04:02:54;;;;;;;3.00;1.55;;;;;;;;;;4489818;28;20165;-70
2022/07/14 04:05:11;;;;;;;3.88;1.60;;;;;;;;;;4473875;28;20557;-70
2022/07/14 04:07:22;;;;;;;3.38;1.55;;;;;;;;;;4487026;28;20034;-71
2022/07/14 04:09:33;;;;;;;3.95;1.55;;;;;;;;;;4491797;28;20398;-72
2022/07/14 04:11:44;;;;;;;4.35;1.60;;;;;;;;;;4493020;28;20137;-71
2022/07/14 04:13:55;;;;;;;3.72;1.45;;;;;;;;;;4490591;28;20594;-71
2022/07/14 04:16:07;;;;;;;2.67;1.40;;;;;;;;;;4482441;28;20035;-71
2022/07/14 04:18:23;;;;;;;4.45;1.58;;;;;;;;;;4493123;28;20042;-71
2022/07/14 04:20:36;;;;;;;3.25;1.45;;;;;;;;;;4491142;28;20047;-71
2022/07/14 04:22:48;;;;;;;4.13;1.48;;;;;;;;;;4506821;28;20136;-70
2022/07/14 04:24:59;;;;;;;3.83;1.45;;;;;;;;;;4500529;28;20139;-69
2022/07/14 04:27:09;;;;;;;3.60;1.40;;;;;;;;;;4495405;28;20572;-69
2022/07/14 04:29:20;;;;;;;4.38;2.00;;;;;;;;;;4499322;28;20038;-69
2022/07/14 04:31:31;;;;;;;3.25;1.77;;;;;;;;;;4500088;28;20601;-69
2022/07/14 04:33:41;;;;;;;4.43;1.80;;;;;;;;;;4494363;28;20025;-69
2022/07/14 04:35:52;;;;;;;4.13;1.40;;;;;;;;;;4494699;28;20029;-69
2022/07/14 04:38:03;;;;;;;3.58;1.50;;;;;;;;;;4483685;28;20498;-70
2022/07/14 04:40:19;;;;;;;4.18;1.60;;;;;;;;;;4490097;28;20038;-68
2022/07/14 04:42:29;;;;;;;2.75;1.50;;;;;;;;;;4483410;28;20034;-70
2022/07/14 04:44:41;;;;;;;3.05;1.42;;;;;;;;;;4508660;28;20129;-68
2022/07/14 04:46:52;;;;;;;3.95;1.90;;;;;;;;;;4499989;28;20037;-70
2022/07/14 04:54:03;;;;;;;3.60;1.70;;;;;;;;;;4506137;28;20069;-70
2022/07/14 04:56:34;;;;;;;3.88;1.75;;;;;;;;;;4507186;28;20072;-69
2022/07/14 04:58:58;;;;;;;3.55;1.48;;;;;;;;;;4494713;28;20030;-70
2022/07/14 05:01:10;;;;;;;3.00;1.52;;;;;;;;;;4477684;28;20098;-70
2022/07/14 05:03:25;;;;;;;4.45;1.73;;;;;;;;;;4494963;28;20110;-69
2022/07/14 05:05:36;;;;;;;3.55;1.48;;;;;;;;;;4493084;28;20043;-69
2022/07/14 05:07:47;;;;;;;5.05;1.70;;;;;;;;;;4506887;28;20368;-70
2022/07/14 05:09:59;;;;;;;4.20;1.60;;;;;;;;;;4494414;28;20034;-69
2022/07/14 05:12:13;;;;;;;5.72;2.00;;;;;;;;;;4474958;28;20539;-69
2022/07/14 05:14:24;;;;;;;3.60;1.45;;;;;;;;;;4481400;28;20052;-69
2022/07/14 05:16:35;;;;;;;4.35;1.52;;;;;;;;;;4494009;28;20044;-69
2022/07/14 05:18:46;;;;;;;5.05;1.50;;;;;;;;;;4477185;28;20065;-69
2022/07/14 05:20:57;;;;;;;4.45;1.60;;;;;;;;;;4490416;28;20047;-69
2022/07/14 05:23:08;;;;;;;4.15;1.40;;;;;;;;;;4494066;28;20031;-71
2022/07/14 05:25:19;;;;;;;3.88;1.40;;;;;;;;;;4493213;28;20996;-70
2022/07/14 05:27:30;;;;;;;2.80;1.25;;;;;;;;;;4476834;28;20145;-69
2022/07/14 05:29:41;;;;;;;3.75;1.63;;;;;;;;;;4500447;28;20545;-70
2022/07/14 05:31:52;;;;;;;5.22;2.03;;;;;;;;;;4507920;28;20407;-70
2022/07/14 05:34:02;;;;;;;3.00;1.40;;;;;;;;;;4508177;28;20510;-69
2022/07/14 05:36:13;;;;;;;4.05;1.75;;;;;;;;;;4507847;28;20065;-69
2022/07/14 05:38:23;;;;;;;3.20;1.50;;;;;;;;;;4507703;28;20569;-69
2022/07/14 05:40:34;;;;;;;3.92;1.45;;;;;;;;;;4508130;28;20038;-68
2022/07/14 05:42:44;;;;;;;4.35;1.73;;;;;;;;;;4508151;28;20400;-69
2022/07/14 05:44:55;;;;;;;4.43;1.58;;;;;;;;;;4509670;28;20140;-69
2022/07/14 05:47:05;;;;;;;4.13;1.60;;;;;;;;;;4499920;28;20588;-70
2022/07/14 05:49:16;;;;;;;3.92;1.48;;;;;;;;;;4494289;28;20022;-70
2022/07/14 05:51:27;;;;;;;5.57;2.28;;;;;;;;;;4494761;28;20959;-71
2022/07/14 05:53:39;;;;;;;5.85;2.17;;;;;;;;;;4476909;28;20065;-71
2022/07/14 05:55:50;;;;;;;4.93;1.98;;;;;;;;;;4496597;28;20038;-70
2022/07/14 05:58:00;;;;;;;5.10;2.20;;;;;;;;;;4495010;28;20025;-70
2022/07/14 06:00:11;;;;;;;5.15;2.10;;;;;;;;;;4498637;28;20046;-70
2022/07/14 06:02:34;;;;;;;4.30;1.92;;;;;;;;;;4491995;28;20821;-71
2022/07/14 06:04:44;;;;;;;5.13;2.10;;;;;;;;;;4508038;28;20084;-71
2022/07/14 06:06:55;;;;;;;5.55;2.28;;;;;;;;;;4508933;28;20033;-70
2022/07/14 06:09:05;;;;;;;3.95;2.00;;;;;;;;;;4508212;28;20041;-70
2022/07/14 06:11:16;;;;;;;4.65;2.15;;;;;;;;;;4508142;28;20760;-70
2022/07/14 06:13:28;;;;;;;4.15;1.90;;;;;;;;;;4506920;28;20095;-70
2022/07/14 06:15:39;;;;;;;5.10;2.33;;;;;;;;;;4493301;28;20034;-70
2022/07/14 06:17:50;;;;;;;4.35;2.28;;;;;;;;;;4493855;28;20044;-70
2022/07/14 06:20:06;;;;;;;6.50;2.45;;;;;;;;;;4492636;28;20038;-67
2022/07/14 06:22:16;;;;;;;5.32;2.20;;;;;;;;;;4477756;28;20037;-68
2022/07/14 06:24:28;;;;;;;5.90;2.35;;;;;;;;;;4509431;28;20589;-67
2022/07/14 06:26:38;;;;;;;5.30;2.10;;;;;;;;;;4499720;28;20038;-67
2022/07/14 06:28:49;;;;;;;5.75;2.47;;;;;;;;;;4477028;28;20031;-67
2022/07/14 06:30:59;;;;;;;5.68;2.50;;;;;;;;;;4507803;28;20140;-67
2022/07/14 06:33:10;;;;;;;5.85;3.10;;;;;;;;;;4496752;28;20505;-67
2022/07/14 06:35:21;;;;;;;4.63;2.33;;;;;;;;;;4494354;28;20761;-67
2022/07/14 06:37:33;;;;;;;4.13;1.95;;;;;;;;;;4498912;28;20026;-68
2022/07/14 06:39:44;;;;;;;5.28;2.42;;;;;;;;;;4491654;28;20112;-68
2022/07/14 06:41:55;;;;;;;6.25;2.65;;;;;;;;;;4492942;28;20434;-68
2022/07/14 06:44:10;;;;;;;5.53;2.80;;;;;;;;;;4491561;28;20085;-68
2022/07/14 06:46:23;;;;;;;4.70;2.35;;;;;;;;;;4492384;28;20753;-68
2022/07/14 06:48:34;;;;;;;5.38;2.25;;;;;;;;;;4490179;28;20030;-68
2022/07/14 06:50:45;;;;;;;5.63;2.53;;;;;;;;;;4493265;28;20034;-68
2022/07/14 06:52:56;;;;;;;5.05;2.50;;;;;;;;;;4491005;28;20073;-69
2022/07/14 06:55:07;;;;;;;5.78;2.20;;;;;;;;;;4493435;28;20633;-68
2022/07/14 06:57:18;;;;;;;5.63;2.22;;;;;;;;;;4489829;28;20612;-68
2022/07/14 06:59:29;;;;;;;4.25;2.20;;;;;;;;;;4492265;28;20042;-68
2022/07/14 07:01:39;;;;;;;5.85;2.63;;;;;;;;;;4506665;28;20050;-68
2022/07/14 07:03:50;;;;;;;5.38;2.70;;;;;;;;;;4507162;28;20375;-68
2022/07/14 07:08:29;;;;;;;4.32;2.40;;;;;;;;;;4506312;28;20937;-68
2022/07/14 07:10:42;;;;;;;5.68;2.65;;;;;;;;;;4507210;28;20061;-68
2022/07/14 07:12:53;;;;;;;4.93;2.53;;;;;;;;;;4505664;28;20034;-68
2022/07/14 07:15:04;;;;;;;5.00;2.42;;;;;;;;;;4497380;28;20026;-68
2022/07/14 07:17:15;;;;;;;7.25;2.95;;;;;;;;;;4506953;28;20038;-68
2022/07/14 07:19:26;;;;;;;5.07;2.20;;;;;;;;;;4505045;28;20034;-68
2022/07/14 07:21:36;;;;;;;4.20;2.33;;;;;;;;;;4507531;28;20043;-69
2022/07/14 07:23:48;;;;;;;5.25;2.40;;;;;;;;;;4499396;28;20541;-68
2022/07/14 07:25:58;;;;;;;4.13;2.25;;;;;;;;;;4487107;28;20035;-69
2022/07/14 07:28:09;;;;;;;5.25;2.10;;;;;;;;;;4506224;28;20042;-69
2022/07/14 07:30:19;;;;;;;3.50;1.83;;;;;;;;;;4506892;28;20037;-68
2022/07/14 07:32:30;;;;;;;4.30;2.30;;;;;;;;;;4504903;28;20144;-68
2022/07/14 07:34:40;;;;;;;3.63;2.00;;;;;;;;;;4506065;28;20095;-68
2022/07/14 07:36:51;;;;;;;5.03;2.35;;;;;;;;;;4507247;28;20034;-68
2022/07/14 07:39:01;;;;;;;4.18;2.78;;;;;;;;;;4479975;28;20554;-68
2022/07/14 07:41:12;;;;;;;5.90;2.60;;;;;;;;;;4507364;28;20057;-68
2022/07/14 07:43:22;;;;;;;6.57;2.67;;;;;;;;;;4506380;28;20125;-68
2022/07/14 07:45:33;;;;;;;5.65;2.65;;;;;;;;;;4505876;28;20034;-68
2022/07/14 07:47:43;;;;;;;6.75;2.53;;;;;;;;;;4505887;28;20066;-68
2022/07/14 07:49:54;;;;;;;5.80;2.10;;;;;;;;;;4507190;28;20140;-69
2022/07/14 07:52:04;;;;;;;5.07;2.70;;;;;;;;;;4507230;28;20034;-69
2022/07/14 07:54:15;;;;;;;5.10;2.53;;;;;;;;;;4509043;28;20037;-69
2022/07/14 07:56:25;;;;;;;7.32;2.60;;;;;;;;;;4509658;28;20037;-69
2022/07/14 07:58:36;;;;;;;4.22;2.33;;;;;;;;;;4510142;28;20718;-68
2022/07/14 08:00:47;;;;;;;5.93;2.42;;;;;;;;;;4508144;28;20061;-69
2022/07/14 08:02:57;;;;;;;3.50;2.28;;;;;;;;;;4494174;28;20041;-69
2022/07/14 08:05:08;;;;;;;4.47;2.15;;;;;;;;;;4498081;28;20248;-68
2022/07/14 08:07:18;;;;;;;5.10;2.30;;;;;;;;;;4508921;28;20125;-68
2022/07/14 08:09:29;;;;;;;3.80;2.40;;;;;;;;;;4485474;28;20165;-69
2022/07/14 08:11:40;;;;;;;4.68;2.20;;;;;;;;;;4509976;28;20045;-69
2022/07/14 08:13:51;;;;;;;3.83;2.05;;;;;;;;;;4509366;28;20104;-68
2022/07/14 08:16:01;;;;;;;4.10;1.98;;;;;;;;;;4507704;28;20165;-69
2022/07/14 08:18:12;;;;;;;3.78;1.92;;;;;;;;;;4501336;28;20029;-69
2022/07/14 08:20:22;;;;;;;5.10;2.22;;;;;;;;;;4509294;28;20414;-67
2022/07/14 08:22:33;;;;;;;4.07;1.92;;;;;;;;;;4508225;28;20483;-68
2022/07/14 08:24:43;;;;;;;3.97;2.22;;;;;;;;;;4508600;28;20042;-69
2022/07/14 08:26:54;;;;;;;3.35;1.77;;;;;;;;;;4506784;28;20033;-68
2022/07/14 08:29:05;;;;;;;4.00;2.00;;;;;;;;;;4508645;28;20034;-68
2022/07/14 08:31:15;;;;;;;3.38;2.38;;;;;;;;;;4508957;28;20037;-68
2022/07/14 08:33:25;;;;;;;4.75;2.25;;;;;;;;;;4507745;28;20157;-68
2022/07/14 08:35:37;;;;;;;4.55;1.90;;;;;;;;;;4507802;28;20052;-68
2022/07/14 08:37:47;;;;;;;5.38;2.15;;;;;;;;;;4482993;28;20034;-66
2022/07/14 08:39:58;;;;;;;4.05;2.10;;;;;;;;;;4491030;28;20678;-66
2022/07/14 08:42:08;;;;;;;4.30;1.92;;;;;;;;;;4507890;28;20080;-66
2022/07/14 08:44:19;;;;;;;4.07;2.08;;;;;;;;;;4477686;28;20030;-66
2022/07/14 08:46:32;;;;;;;3.97;2.05;;;;;;;;;;4508034;28;20092;-66
2022/07/14 08:48:43;;;;;;;3.45;2.20;;;;;;;;;;4478591;28;20522;-67
2022/07/14 08:50:53;;;;;;;5.30;2.25;;;;;;;;;;4477352;28;20018;-66
2022/07/14 08:53:04;;;;;;;3.50;2.15;;;;;;;;;;4507185;28;20061;-67
2022/07/14 08:55:17;;;;;;;3.30;1.95;;;;;;;;;;4495116;28;20026;-68
2022/07/14 08:57:27;;;;;;;4.15;2.10;;;;;;;;;;4489124;28;20029;-67
2022/07/14 08:59:38;;;;;;;3.92;2.10;;;;;;;;;;4493425;28;20562;-67
2022/07/14 09:01:50;;;;;;;3.55;1.98;;;;;;;;;;4490728;28;20173;-67
2022/07/14 09:04:01;;;;;;;3.55;1.98;;;;;;;;;;4507130;28;20042;-67
2022/07/14 09:06:44;;;;;;;3.85;2.17;;;;;;;;;;4482935;28;20027;-68
2022/07/14 09:08:56;;;;;;;4.25;2.03;;;;;;;;;;4500479;28;20034;-68
2022/07/14 09:11:17;;;;;;;4.88;2.25;;;;;;;;;;4490796;28;20037;-67
2022/07/14 09:13:29;;;;;;;3.17;2.00;;;;;;;;;;4485050;28;20045;-68
2022/07/14 09:15:44;;;;;;;4.07;2.10;;;;;;;;;;4490307;28;20242;-70
2022/07/14 09:18:02;;;;;;;4.22;2.17;;;;;;;;;;4508472;28;20822;-72
2022/07/14 09:20:13;;;;;;;4.43;2.20;;;;;;;;;;4495509;28;20771;-67
2022/07/14 09:22:27;;;;;;;4.32;2.10;;;;;;;;;;4508716;28;20274;-71
2022/07/14 09:24:38;;;;;;;3.45;1.90;;;;;;;;;;4508938;28;20077;-71
2022/07/14 09:26:52;;;;;;;5.65;2.30;;;;;;;;;;4508529;28;20046;-69
2022/07/14 09:29:03;;;;;;;4.15;2.15;;;;;;;;;;4508913;28;20042;-71
2022/07/14 09:31:27;;;;;;;4.68;2.20;;;;;;;;;;4508505;28;20959;-69
2022/07/14 09:33:38;;;;;;;3.13;1.90;;;;;;;;;;4509200;28;20613;-70
2022/07/14 09:35:48;;;;;;;2.55;1.55;;;;;;;;;;4490960;28;20031;-72
2022/07/14 09:37:59;;;;;;;2.78;1.88;;;;;;;;;;4506322;28;20084;-70
2022/07/14 09:40:20;;;;;;;3.42;1.90;;;;;;;;;;4507308;28;20037;-69
2022/07/14 09:42:52;;;;;;;3.60;2.00;;;;;;;;;;4507536;28;20184;-67
2022/07/14 09:45:09;;;;;;;4.55;1.98;;;;;;;;;;4509012;28;20041;-68
2022/07/14 09:47:19;;;;;;;;;;;;;;;;;;4509755;28;20065;-71
2022/07/14 09:49:31;;;;;;;4.63;2.05;;;;;;;;;;4507035;28;21394;-72
2022/07/14 09:52:04;;;;;;;3.38;2.05;;;;;;;;;;4507126;28;20030;-68
2022/07/14 09:54:14;;;;;;;4.07;1.95;;;;;;;;;;4494461;28;20769;-69
2022/07/14 09:56:25;;;;;;;3.55;1.65;;;;;;;;;;4505327;28;20037;-68
2022/07/14 09:58:54;;;;;;;3.42;1.85;;;;;;;;;;4507983;28;20490;-68
2022/07/14 10:01:09;;;;;;;2.90;1.65;;;;;;;;;;4506581;28;20049;-68
2022/07/14 10:03:21;;;;;;;3.42;2.10;;;;;;;;;;4488461;28;20085;-66
2022/07/14 10:05:33;;;;;;;2.78;1.52;;;;;;;;;;4489537;28;20543;-67
2022/07/14 10:07:44;;;;;;;3.13;1.50;;;;;;;;;;4490258;28;21903;-67
2022/07/14 10:10:07;;;;;;;2.97;1.50;;;;;;;;;;4507916;28;20042;-67
2022/07/14 10:12:17;;;;;;;4.40;1.85;;;;;;;;;;4507466;28;20094;-68
2022/07/14 10:14:28;;;;;;;3.75;1.80;;;;;;;;;;4504428;28;20589;-69
2022/07/14 10:16:41;;;;;;;3.13;1.45;;;;;;;;;;4506978;28;20041;-69
2022/07/14 10:18:51;;;;;;;3.40;1.70;;;;;;;;;;4492919;28;20038;-70
2022/07/14 10:21:04;;;;;;;3.13;1.60;;;;;;;;;;4493100;28;20046;-68
2022/07/14 10:23:16;;;;;;;3.03;1.30;;;;;;;;;;4506669;28;20585;-69
2022/07/14 10:25:26;;;;;;;2.25;1.45;;;;;;;;;;4505238;28;20578;-69
2022/07/14 10:27:42;;;;;;;1.73;1.20;;;;;;;;;;4482890;28;20038;-69
2022/07/14 10:29:56;;;;;;;2.42;1.20;;;;;;;;;;4506858;28;20034;-68
2022/07/14 10:32:41;;;;;;;2.60;1.13;;;;;;;;;;4506209;28;20037;-68
2022/07/14 10:35:10;;;;;;;2.92;1.38;;;;;;;;;;4507020;28;20099;-67
2022/07/14 10:37:38;;;;;;;2.30;1.10;;;;;;;;;;4506145;28;20048;-66
2022/07/14 10:39:56;;;;;;;2.15;1.08;;;;;;;;;;4492421;28;20038;-68
2022/07/14 10:42:22;;;;;;;2.10;1.00;;;;;;;;;;4505933;28;20033;-67
2022/07/14 10:44:35;;;;;;;2.42;1.00;;;;;;;;;;4506220;28;20108;-67
2022/07/14 10:46:49;;;;;;;2.58;1.10;;;;;;;;;;4504910;28;20048;-68
2022/07/14 10:49:01;;;;;;;2.75;0.90;;;;;;;;;;4489323;28;20102;-68
2022/07/14 10:51:15;;;;;;;2.58;1.20;;;;;;;;;;4476494;28;20051;-68
2022/07/14 10:53:25;;;;;;;2.58;1.10;;;;;;;;;;4506808;28;21598;-68
2022/07/14 10:55:37;;;;;;;1.90;1.00;;;;;;;;;;4507562;28;20152;-69
2022/07/14 10:58:09;;;;;;;1.98;0.82;;;;;;;;;;4507545;28;20041;-67
2022/07/14 11:00:44;;;;;;;2.15;1.00;;;;;;;;;;4488816;28;20657;-68
2022/07/14 11:03:28;;;;;;;2.25;0.93;;;;;;;;;;4497746;28;20042;-69
2022/07/14 11:06:00;;;;;;;2.38;1.02;;;;;;;;;;4490317;28;20026;-68
2022/07/14 11:08:11;;;;;;;2.38;0.90;;;;;;;;;;4506353;28;20675;-68
2022/07/14 11:10:25;;;;;;;1.42;0.80;;;;;;;;;;4491930;28;20537;-68
2022/07/14 11:13:05;;;;;;;1.83;0.80;;;;;;;;;;4508206;28;20589;-68
2022/07/14 11:15:43;;;;;;;1.52;0.70;;;;;;;;;;4506607;28;20749;-69
2022/07/14 11:18:17;;;;;;;1.65;0.80;;;;;;;;;;4506448;28;20047;-68
2022/07/14 11:20:46;;;;;;;1.20;0.80;;;;;;;;;;4506536;28;20042;-68
2022/07/14 11:23:15;;;;;;;2.03;1.02;;;;;;;;;;4506334;28;20794;-68
2022/07/14 11:25:27;;;;;;;1.23;0.80;;;;;;;;;;4505652;28;20603;-67
2022/07/14 11:27:48;;;;;;;1.20;0.80;;;;;;;;;;4488508;28;20584;-68
2022/07/14 11:30:18;;;;;;;1.65;0.80;;;;;;;;;;4505574;28;20641;-68
2022/07/14 11:32:31;;;;;;;1.58;1.00;;;;;;;;;;4476725;28;20760;-68
2022/07/14 11:37:22;;;;;;;2.13;0.70;;;;;;;;;;4494579;28;20034;-68
2022/07/14 11:39:44;;;;;;;1.65;0.80;;;;;;;;;;4496949;28;20081;-68
2022/07/14 11:42:08;;;;;;;1.77;0.63;;;;;;;;;;4506696;28;20965;-69
2022/07/14 11:44:35;;;;;;;2.47;0.80;;;;;;;;;;4505793;28;21272;-69
2022/07/14 11:47:02;;;;;;;1.60;0.70;;;;;;;;;;4505386;28;20030;-68
2022/07/14 11:49:21;;;;;;;1.60;0.73;;;;;;;;;;4481791;28;20652;-68
2022/07/14 11:51:32;;;;;;;0.88;0.50;;;;;;;;;;4491913;28;21320;-68
2022/07/14 11:53:42;;;;;;;1.10;0.50;;;;;;;;;;4491465;28;20049;-68
2022/07/14 11:55:54;;;;;;;1.70;0.70;;;;;;;;;;4506537;28;20136;-68
2022/07/14 11:58:05;;;;;;;1.02;0.80;;;;;;;;;;4506682;28;20623;-68
2022/07/14 12:00:16;;;;;;;1.63;0.70;;;;;;;;;;4489617;28;20829;-68
2022/07/14 12:02:27;;;;;;;1.70;0.70;;;;;;;;;;4507217;28;20132;-68
2022/07/14 12:04:53;;;;;;;1.05;0.50;;;;;;;;;;4505785;28;20038;-68
2022/07/14 12:07:03;;;;;;;1.30;0.50;;;;;;;;;;4481400;28;20033;-69
2022/07/14 12:09:28;;;;;;;0.75;0.50;;;;;;;;;;4505919;28;20053;-68
2022/07/14 12:11:50;;;;;;;1.88;0.60;;;;;;;;;;4487321;28;20640;-68
2022/07/14 12:14:00;;;;;;;1.52;0.65;;;;;;;;;;4506338;28;20030;-68
2022/07/14 12:16:11;;;;;;;1.63;0.50;;;;;;;;;;4505344;28;20038;-68
2022/07/14 12:18:28;;;;;;;1.00;0.60;;;;;;;;;;4493069;28;20029;-68
2022/07/14 12:20:45;;;;;;;1.45;0.60;;;;;;;;;;4490029;28;20042;-67
2022/07/14 12:22:56;;;;;;;1.27;0.55;;;;;;;;;;4488183;28;20026;-68
2022/07/14 12:25:24;;;;;;;2.22;0.90;;;;;;;;;;4490237;28;20050;-68
2022/07/14 12:27:35;;;;;;;1.02;0.50;;;;;;;;;;4493095;28;20042;-66
2022/07/14 12:29:48;;;;;;;1.13;0.60;;;;;;;;;;4472271;28;20045;-67
2022/07/14 12:32:00;;;;;;;1.52;0.70;;;;;;;;;;4506605;28;20042;-68
2022/07/14 12:34:10;;;;;;;1.92;0.82;;;;;;;;;;4487617;28;20573;-66
2022/07/14 12:36:24;;;;;;;1.80;0.70;;;;;;;;;;4480476;28;20088;-69
2022/07/14 12:38:37;;;;;;;1.35;0.50;;;;;;;;;;4507455;28;20045;-69
2022/07/14 12:40:58;;;;;;;1.23;0.60;;;;;;;;;;4490357;28;20027;-67
2022/07/14 12:43:09;;;;;;;1.20;0.50;;;;;;;;;;4509267;28;20859;-67
2022/07/14 12:45:20;;;;;;;1.80;0.52;;;;;;;;;;4509510;28;20034;-68
2022/07/14 12:47:30;;;;;;;1.75;0.77;;;;;;;;;;4508234;28;20042;-67
2022/07/14 12:49:44;;;;;;;1.70;0.60;;;;;;;;;;4507308;28;20033;-68
2022/07/14 12:51:55;;;;;;;1.48;0.50;;;;;;;;;;4508712;28;20781;-68
2022/07/14 12:54:16;;;;;;;2.10;0.70;;;;;;;;;;4509930;28;20033;-68
2022/07/14 12:56:28;;;;;;;2.80;0.60;;;;;;;;;;4507941;28;20042;-68
2022/07/14 12:58:43;;;;;;;1.65;0.75;;;;;;;;;;4508057;28;21070;-69
2022/07/14 13:00:54;;;;;;;1.98;0.55;;;;;;;;;;4508457;28;21134;-67
2022/07/14 13:03:17;;;;;;;0.95;0.40;;;;;;;;;;4489480;28;20046;-68
2022/07/14 13:05:28;;;;;;;1.30;0.60;;;;;;;;;;4493968;28;20034;-68
2022/07/14 13:07:39;;;;;;;1.50;0.70;;;;;;;;;;4506941;28;20021;-69
2022/07/14 13:10:19;;;;;;;1.80;0.70;;;;;;;;;;4507187;28;20033;-69
2022/07/14 13:12:30;;;;;;;0.90;0.50;;;;;;;;;;4483931;28;20042;-69
2022/07/14 13:15:00;;;;;;;2.00;0.73;;;;;;;;;;4477668;28;20026;-68
2022/07/14 13:17:11;;;;;;;0.88;0.60;;;;;;;;;;4493987;28;20041;-68
2022/07/14 13:19:24;;;;;;;1.20;0.60;;;;;;;;;;4505151;28;20047;-69
2022/07/14 13:22:03;;;;;;;2.35;0.80;;;;;;;;;;4508396;28;20576;-68
2022/07/14 13:24:27;;;;;;;1.55;0.60;;;;;;;;;;4509491;28;20560;-68
2022/07/14 13:26:37;;;;;;;4.35;2.03;;;;;;;;;;4494683;28;20032;-69
2022/07/14 13:28:52;;;;;;;3.85;1.70;;;;;;;;;;4507894;28;20053;-68
2022/07/14 13:31:09;;;;;;;2.78;1.70;;;;;;;;;;4491627;28;20042;-69
2022/07/14 13:33:19;;;;;;;;;;;;;;;;;;4484252;28;20142;-68